This is the latest recevied weather packets stored in our database for station/object KF7OVD-WX. If no packets are shown the sender has not sent any weather packets the latest 10 day(s).
| Time | Temp. | Humidity | Pressure | Rain* | Wind** | Luminosity | Snow |
|---|---|---|---|---|---|---|---|
| 1778134219 | 3.89° C | 53% | 1025.3 hPa | 0 mm | - | - | - |
| 1778133049 | 3.89° C | 55% | 1025.2 hPa | 0 mm | - | - | - |
| 1778132726 | 3.89° C | 55% | 1025.1 hPa | 0 mm | - | - | - |
| 1778131215 | 5° C | 54% | 1025.1 hPa | 0 mm | - | - | - |
| 1778130930 | 5° C | 54% | 1025.1 hPa | 0 mm | - | - | - |
| 1778129416 | 6.67° C | 52% | 1025.5 hPa | 0 mm | - | - | - |
| 1778128224 | 6.67° C | 48% | 1025.4 hPa | 0 mm | - | - | - |
| 1778127922 | 7.22° C | 47% | 1025.4 hPa | 0 mm | - | - | - |
| 1778125828 | 8.33° C | 45% | 1024.9 hPa | 0 mm | - | - | - |
| 1778124921 | 9.44° C | 41% | 1024.5 hPa | 0 mm | - | - | - |
| 1778118629 | 19.44° C | 28% | 1023.1 hPa | 0 mm | - | - | - |
| 1778118326 | 20° C | 27% | 1023.1 hPa | 0 mm | - | - | - |
| 1778117117 | 19.44° C | 30% | 1022.9 hPa | 0 mm | - | - | - |
| 1778116229 | 20° C | 28% | 1022.7 hPa | 0 mm | - | - | - |
| 1778115926 | 20° C | 28% | 1022.7 hPa | 0 mm | - | - | - |
| 1778110828 | 22.78° C | 25% | 1022.4 hPa | 0 mm | - | - | - |
| 1778109920 | 23.33° C | 26% | 1022.4 hPa | 0 mm | - | - | - |
| 1778108750 | 23.33° C | 27% | 1022.4 hPa | 0 mm | - | - | - |
| 1778108427 | 23.33° C | 26% | 1022.5 hPa | 0 mm | - | - | - |
| 1778108125 | 23.33° C | 25% | 1022.5 hPa | 0 mm | - | - | - |
| 1778102458 | 24.44° C | 30% | 1022.8 hPa | 0 mm | - | - | - |
| 1778100924 | 23.89° C | 31% | 1022.7 hPa | 0 mm | - | - | - |
| 1778098219 | 23.89° C | 29% | 1022.7 hPa | 0 mm | - | - | - |
| 1778097620 | 23.33° C | 33% | 1022.9 hPa | 0 mm | - | - | - |
| 1778091929 | 22.22° C | 38% | 1023 hPa | 0 mm | - | - | - |
* Rain latest hour (hover to see other rain measurements)
** Current wind speed in m/s (hover to see current wind gust speed)